Terminal Aerodrome Forecast
Issued by NWS Charleston, WV

Current Version | Previous Version | Text Only | Print | Product List | Glossary Off
Versions: 1 2 3 4 5 6 7 8 9 10 11 12 13 14 15 16 17 18 19 20 21 22 23

854
FTUS41 KRLX 221035 AAB
TAFCRW
TAF AMD
KCRW 221035Z 2211/2306 00000KT 3SM BR SCT001
      TEMPO 2211/2213 1/2SM FG
     FM221300 04005KT P6SM SKC=

USA.gov is the U.S. government's official web portal to all federal, state and local government web resources and services.